DAL864 MMMD-MGGT
Flight info
| Callsign | DAL864 |
|---|---|
| Flight time | 1h 3m |
| Altitude | 36000 |
| Route | MID4A MID UA770 NALDA/N0407F180 A770 AUR |
| Aircraft | A320/M-SDE3FGHIRWY/LB1 |
Departure
| Time | 2026-05-07 12:57 |
|---|---|
| Airport | Manuel Crescencio Rejón International Airport (MMMD) |
Arrival
| Time | 2026-05-07 14:01 |
|---|---|
| Airport | La Aurora International Airport (MGGT) |
| Time | Latitude | Longitude | Altitude | Speed | Heading |
|---|---|---|---|---|---|
| 2026-05-07 12:25 | 20.93537 | -89.66216 | 39 ft | 0 kts | 209° |
| 2026-05-07 12:50 | 20.93547 | -89.66210 | 37 ft | 4 kts | 213° |
| 2026-05-07 12:50 | 20.93569 | -89.66193 | 34 ft | 4 kts | 222° |
| 2026-05-07 12:51 | 20.93587 | -89.66177 | 38 ft | 4 kts | 178° |
| 2026-05-07 12:51 | 20.93589 | -89.66175 | 38 ft | 1 kts | 122° |
| 2026-05-07 12:51 | 20.93590 | -89.66177 | 38 ft | 0 kts | 122° |
| 2026-05-07 12:54 | 20.93590 | -89.66176 | 39 ft | 1 kts | 122° |
| 2026-05-07 12:54 | 20.93575 | -89.66149 | 39 ft | 6 kts | 100° |
| 2026-05-07 12:54 | 20.93551 | -89.66082 | 39 ft | 13 kts | 106° |
| 2026-05-07 12:55 | 20.93574 | -89.65978 | 39 ft | 17 kts | 26° |
| 2026-05-07 12:55 | 20.93642 | -89.65972 | 40 ft | 0 kts | 2° |
| 2026-05-07 12:55 | 20.93654 | -89.65972 | 40 ft | 5 kts | 2° |
| 2026-05-07 12:56 | 20.93706 | -89.65971 | 41 ft | 10 kts | 359° |
| 2026-05-07 12:56 | 20.93738 | -89.65911 | 41 ft | 14 kts | 106° |
| 2026-05-07 12:56 | 20.93682 | -89.65672 | 38 ft | 66 kts | 105° |
| 2026-05-07 12:56 | 20.93499 | -89.64975 | 34 ft | 126 kts | 105° |
| 2026-05-07 12:57 | 20.93224 | -89.63917 | 180 ft | 160 kts | 106° |
| 2026-05-07 12:57 | 20.92914 | -89.62729 | 669 ft | 172 kts | 108° |
| 2026-05-07 12:57 | 20.92632 | -89.61458 | 1288 ft | 178 kts | 107° |
| 2026-05-07 12:57 | 20.92371 | -89.60175 | 2093 ft | 175 kts | 108° |
| 2026-05-07 12:58 | 20.92109 | -89.58883 | 2656 ft | 183 kts | 108° |
| 2026-05-07 12:58 | 20.91815 | -89.57479 | 2939 ft | 206 kts | 107° |
| 2026-05-07 12:58 | 20.91492 | -89.55939 | 3494 ft | 215 kts | 106° |
| 2026-05-07 12:58 | 20.91161 | -89.54360 | 4168 ft | 221 kts | 105° |
| 2026-05-07 12:59 | 20.90810 | -89.52711 | 4809 ft | 227 kts | 107° |
| 2026-05-07 12:59 | 20.90164 | -89.51180 | 5430 ft | 229 kts | 129° |
| 2026-05-07 12:59 | 20.88957 | -89.50080 | 6066 ft | 231 kts | 154° |
| 2026-05-07 12:59 | 20.87399 | -89.49634 | 6667 ft | 235 kts | 179° |
| 2026-05-07 13:00 | 20.85791 | -89.49959 | 7284 ft | 240 kts | 204° |
| 2026-05-07 13:00 | 20.84345 | -89.50882 | 7913 ft | 245 kts | 214° |
| 2026-05-07 13:00 | 20.82981 | -89.52002 | 8533 ft | 250 kts | 220° |
| 2026-05-07 13:00 | 20.81710 | -89.53287 | 9167 ft | 254 kts | 225° |
| 2026-05-07 13:01 | 20.80545 | -89.54735 | 9807 ft | 259 kts | 231° |
| 2026-05-07 13:01 | 20.79505 | -89.56338 | 10288 ft | 270 kts | 237° |
| 2026-05-07 13:01 | 20.78580 | -89.58183 | 10471 ft | 294 kts | 245° |
| 2026-05-07 13:01 | 20.77820 | -89.60302 | 10644 ft | 318 kts | 251° |
| 2026-05-07 13:02 | 20.76960 | -89.62563 | 10767 ft | 339 kts | 242° |
| 2026-05-07 13:02 | 20.75671 | -89.64761 | 10885 ft | 359 kts | 230° |
| 2026-05-07 13:02 | 20.73886 | -89.66705 | 11004 ft | 376 kts | 217° |
| 2026-05-07 13:02 | 20.71638 | -89.68191 | 11332 ft | 383 kts | 203° |
| 2026-05-07 13:03 | 20.69102 | -89.69084 | 11818 ft | 386 kts | 190° |
| 2026-05-07 13:03 | 20.66440 | -89.69493 | 12317 ft | 388 kts | 185° |
| 2026-05-07 13:03 | 20.63752 | -89.69869 | 12776 ft | 391 kts | 185° |
| 2026-05-07 13:03 | 20.61042 | -89.70249 | 13285 ft | 394 kts | 185° |
| 2026-05-07 13:04 | 20.58311 | -89.70636 | 13792 ft | 398 kts | 185° |
| 2026-05-07 13:04 | 20.55555 | -89.71029 | 14247 ft | 401 kts | 186° |
| 2026-05-07 13:04 | 20.52779 | -89.71425 | 14719 ft | 404 kts | 185° |
| 2026-05-07 13:04 | 20.49984 | -89.71820 | 15187 ft | 407 kts | 185° |
| 2026-05-07 13:05 | 20.47208 | -89.72211 | 15654 ft | 409 kts | 185° |
| 2026-05-07 13:05 | 20.44377 | -89.72611 | 16141 ft | 411 kts | 185° |
| 2026-05-07 13:05 | 20.41532 | -89.73015 | 16625 ft | 414 kts | 186° |
| 2026-05-07 13:05 | 20.38663 | -89.73420 | 17087 ft | 417 kts | 185° |
| 2026-05-07 13:06 | 20.35776 | -89.73825 | 17555 ft | 420 kts | 185° |
| 2026-05-07 13:06 | 20.32865 | -89.74231 | 18018 ft | 423 kts | 185° |
| 2026-05-07 13:06 | 20.29938 | -89.74639 | 18434 ft | 426 kts | 185° |
| 2026-05-07 13:06 | 20.26990 | -89.75052 | 18837 ft | 428 kts | 186° |
| 2026-05-07 13:07 | 20.24036 | -89.75467 | 19248 ft | 429 kts | 185° |
| 2026-05-07 13:07 | 20.21073 | -89.75881 | 19664 ft | 430 kts | 185° |
| 2026-05-07 13:07 | 20.18096 | -89.76296 | 20062 ft | 432 kts | 186° |
| 2026-05-07 13:07 | 20.15112 | -89.76713 | 20473 ft | 432 kts | 185° |
| 2026-05-07 13:08 | 20.12121 | -89.77131 | 20847 ft | 434 kts | 185° |
| 2026-05-07 13:08 | 20.09124 | -89.77549 | 21217 ft | 436 kts | 185° |
| 2026-05-07 13:08 | 20.06116 | -89.77970 | 21578 ft | 437 kts | 186° |
| 2026-05-07 13:08 | 20.03093 | -89.78397 | 21933 ft | 439 kts | 186° |
| 2026-05-07 13:09 | 20.00065 | -89.78829 | 22300 ft | 440 kts | 186° |
| 2026-05-07 13:09 | 19.97031 | -89.79262 | 22562 ft | 441 kts | 186° |
| 2026-05-07 13:09 | 19.93985 | -89.79692 | 22832 ft | 441 kts | 186° |
| 2026-05-07 13:09 | 19.90936 | -89.80117 | 23058 ft | 443 kts | 186° |
| 2026-05-07 13:10 | 19.87875 | -89.80545 | 23310 ft | 444 kts | 186° |
| 2026-05-07 13:10 | 19.84807 | -89.80976 | 23538 ft | 445 kts | 186° |
| 2026-05-07 13:10 | 19.81732 | -89.81409 | 23706 ft | 447 kts | 186° |
| 2026-05-07 13:10 | 19.78651 | -89.81845 | 23903 ft | 447 kts | 186° |
| 2026-05-07 13:11 | 19.75553 | -89.82282 | 24072 ft | 451 kts | 186° |
| 2026-05-07 13:11 | 19.72438 | -89.82720 | 24311 ft | 452 kts | 186° |
| 2026-05-07 13:11 | 19.69319 | -89.83156 | 24526 ft | 454 kts | 186° |
| 2026-05-07 13:11 | 19.66184 | -89.83593 | 24757 ft | 455 kts | 186° |
| 2026-05-07 13:12 | 19.63045 | -89.84032 | 24984 ft | 456 kts | 186° |
| 2026-05-07 13:12 | 19.59890 | -89.84478 | 25198 ft | 458 kts | 186° |
| 2026-05-07 13:12 | 19.56732 | -89.84926 | 25430 ft | 459 kts | 186° |
| 2026-05-07 13:12 | 19.53560 | -89.85372 | 25635 ft | 460 kts | 187° |
| 2026-05-07 13:13 | 19.50388 | -89.85818 | 25867 ft | 461 kts | 186° |
| 2026-05-07 13:13 | 19.47199 | -89.86265 | 26050 ft | 463 kts | 187° |
| 2026-05-07 13:13 | 19.44005 | -89.86714 | 26268 ft | 464 kts | 186° |
| 2026-05-07 13:13 | 19.40799 | -89.87160 | 26422 ft | 466 kts | 185° |
| 2026-05-07 13:14 | 19.37582 | -89.87606 | 26634 ft | 467 kts | 186° |
| 2026-05-07 13:14 | 19.34356 | -89.88055 | 26811 ft | 468 kts | 186° |
| 2026-05-07 13:14 | 19.31118 | -89.88509 | 27000 ft | 469 kts | 186° |
| 2026-05-07 13:14 | 19.27925 | -89.88961 | 27175 ft | 470 kts | 186° |
| 2026-05-07 13:15 | 19.24677 | -89.89421 | 27348 ft | 470 kts | 186° |
| 2026-05-07 13:15 | 19.21441 | -89.89876 | 27619 ft | 469 kts | 187° |
| 2026-05-07 13:15 | 19.18204 | -89.90329 | 27834 ft | 469 kts | 186° |
| 2026-05-07 13:15 | 19.14975 | -89.90778 | 28107 ft | 468 kts | 186° |
| 2026-05-07 13:16 | 19.11745 | -89.91226 | 28343 ft | 468 kts | 186° |
| 2026-05-07 13:16 | 19.08520 | -89.91671 | 28582 ft | 468 kts | 186° |
| 2026-05-07 13:16 | 19.05291 | -89.92118 | 28787 ft | 468 kts | 187° |
| 2026-05-07 13:16 | 19.02059 | -89.92571 | 29046 ft | 468 kts | 187° |
| 2026-05-07 13:17 | 18.98835 | -89.93022 | 29282 ft | 468 kts | 186° |
| 2026-05-07 13:17 | 18.95607 | -89.93473 | 29549 ft | 467 kts | 187° |
| 2026-05-07 13:17 | 18.92386 | -89.93920 | 29828 ft | 467 kts | 186° |
| 2026-05-07 13:17 | 18.89167 | -89.94365 | 30073 ft | 466 kts | 186° |
| 2026-05-07 13:18 | 18.85956 | -89.94810 | 30332 ft | 465 kts | 186° |
| 2026-05-07 13:18 | 18.82746 | -89.95255 | 30546 ft | 465 kts | 186° |
| 2026-05-07 13:18 | 18.79547 | -89.95697 | 30800 ft | 464 kts | 186° |
| 2026-05-07 13:18 | 18.76343 | -89.96138 | 31007 ft | 464 kts | 186° |
| 2026-05-07 13:19 | 18.73143 | -89.96575 | 31235 ft | 464 kts | 186° |
| 2026-05-07 13:19 | 18.69941 | -89.97014 | 31458 ft | 464 kts | 186° |
| 2026-05-07 13:19 | 18.66740 | -89.97452 | 31715 ft | 463 kts | 187° |
| 2026-05-07 13:19 | 18.63552 | -89.97893 | 31970 ft | 462 kts | 187° |
| 2026-05-07 13:20 | 18.60363 | -89.98336 | 32215 ft | 462 kts | 187° |
| 2026-05-07 13:20 | 18.57182 | -89.98779 | 32486 ft | 461 kts | 187° |
| 2026-05-07 13:20 | 18.54005 | -89.99222 | 32735 ft | 460 kts | 187° |
| 2026-05-07 13:20 | 18.50835 | -89.99659 | 33024 ft | 459 kts | 187° |
| 2026-05-07 13:21 | 18.47667 | -90.00094 | 33261 ft | 458 kts | 187° |
| 2026-05-07 13:21 | 18.44513 | -90.00526 | 33576 ft | 456 kts | 187° |
| 2026-05-07 13:21 | 18.41368 | -90.00959 | 33836 ft | 456 kts | 187° |
| 2026-05-07 13:21 | 18.38219 | -90.01394 | 34081 ft | 455 kts | 187° |
| 2026-05-07 13:22 | 18.35082 | -90.01829 | 34296 ft | 455 kts | 187° |
| 2026-05-07 13:22 | 18.31938 | -90.02265 | 34509 ft | 455 kts | 187° |
| 2026-05-07 13:22 | 18.28802 | -90.02697 | 34744 ft | 454 kts | 187° |
| 2026-05-07 13:22 | 18.25663 | -90.03126 | 34939 ft | 455 kts | 187° |
| 2026-05-07 13:23 | 18.22526 | -90.03555 | 35165 ft | 454 kts | 188° |
| 2026-05-07 13:23 | 18.19400 | -90.03987 | 35359 ft | 454 kts | 188° |
| 2026-05-07 13:23 | 18.17326 | -90.04274 | 35486 ft | 454 kts | 188° |
| 2026-05-07 13:23 | 18.13138 | -90.04848 | 35750 ft | 453 kts | 188° |
| 2026-05-07 13:24 | 18.11065 | -90.05132 | 35866 ft | 454 kts | 188° |
| 2026-05-07 13:24 | 18.07934 | -90.05562 | 35941 ft | 455 kts | 188° |
| 2026-05-07 13:24 | 18.01625 | -90.06426 | 35953 ft | 457 kts | 188° |
| 2026-05-07 13:25 | 17.95311 | -90.07293 | 35951 ft | 458 kts | 188° |
| 2026-05-07 13:25 | 17.88993 | -90.08163 | 35951 ft | 458 kts | 188° |
| 2026-05-07 13:26 | 17.82630 | -90.09036 | 35954 ft | 459 kts | 189° |
| 2026-05-07 13:26 | 17.76292 | -90.09847 | 35958 ft | 459 kts | 187° |
| 2026-05-07 13:27 | 17.69951 | -90.10606 | 35960 ft | 459 kts | 187° |
| 2026-05-07 13:27 | 17.63623 | -90.11459 | 35958 ft | 458 kts | 188° |
| 2026-05-07 13:28 | 17.57303 | -90.12360 | 35958 ft | 458 kts | 188° |
| 2026-05-07 13:28 | 17.50976 | -90.13244 | 35957 ft | 458 kts | 188° |
| 2026-05-07 13:29 | 17.44650 | -90.14102 | 35956 ft | 458 kts | 188° |
| 2026-05-07 13:29 | 17.38327 | -90.14951 | 35954 ft | 458 kts | 187° |
| 2026-05-07 13:30 | 17.31997 | -90.15818 | 35946 ft | 459 kts | 188° |
| 2026-05-07 13:30 | 17.25668 | -90.16691 | 35946 ft | 459 kts | 188° |
| 2026-05-07 13:31 | 17.19340 | -90.17557 | 35948 ft | 459 kts | 188° |
| 2026-05-07 13:31 | 17.13002 | -90.18414 | 35948 ft | 459 kts | 187° |
| 2026-05-07 13:32 | 17.06666 | -90.19277 | 35947 ft | 459 kts | 188° |
| 2026-05-07 13:32 | 17.00329 | -90.20143 | 35943 ft | 460 kts | 188° |
| 2026-05-07 13:33 | 16.93983 | -90.20999 | 35943 ft | 460 kts | 187° |
| 2026-05-07 13:33 | 16.87628 | -90.21865 | 35946 ft | 460 kts | 187° |
| 2026-05-07 13:34 | 16.78096 | -90.23163 | 35947 ft | 461 kts | 187° |
| 2026-05-07 13:35 | 16.71739 | -90.24023 | 35952 ft | 461 kts | 187° |
| 2026-05-07 13:35 | 16.65381 | -90.24888 | 35952 ft | 461 kts | 187° |
| 2026-05-07 13:36 | 16.59009 | -90.25749 | 35951 ft | 462 kts | 187° |
| 2026-05-07 13:36 | 16.52676 | -90.26607 | 35952 ft | 462 kts | 187° |
| 2026-05-07 13:37 | 16.46305 | -90.27475 | 35960 ft | 462 kts | 187° |
| 2026-05-07 13:37 | 16.39927 | -90.28336 | 35962 ft | 462 kts | 187° |
| 2026-05-07 13:38 | 16.33545 | -90.29194 | 35976 ft | 462 kts | 187° |
| 2026-05-07 13:38 | 16.27169 | -90.30063 | 35975 ft | 462 kts | 187° |
| 2026-05-07 13:39 | 16.20785 | -90.30937 | 35957 ft | 462 kts | 187° |
| 2026-05-07 13:39 | 16.14499 | -90.31785 | 35977 ft | 452 kts | 187° |
| 2026-05-07 13:40 | 16.08267 | -90.32618 | 35693 ft | 451 kts | 186° |
| 2026-05-07 13:40 | 16.05160 | -90.33033 | 35480 ft | 450 kts | 187° |
| 2026-05-07 13:40 | 16.02056 | -90.33454 | 35244 ft | 450 kts | 187° |
| 2026-05-07 13:40 | 15.98935 | -90.33877 | 34480 ft | 454 kts | 186° |
| 2026-05-07 13:41 | 15.95794 | -90.34306 | 33803 ft | 454 kts | 186° |
| 2026-05-07 13:41 | 15.92675 | -90.34734 | 33240 ft | 450 kts | 186° |
| 2026-05-07 13:41 | 15.89583 | -90.35157 | 32693 ft | 446 kts | 186° |
| 2026-05-07 13:41 | 15.86517 | -90.35576 | 32125 ft | 443 kts | 185° |
| 2026-05-07 13:42 | 15.83469 | -90.35991 | 31567 ft | 440 kts | 185° |
| 2026-05-07 13:42 | 15.80439 | -90.36404 | 31017 ft | 438 kts | 185° |
| 2026-05-07 13:42 | 15.77429 | -90.36814 | 30502 ft | 435 kts | 185° |
| 2026-05-07 13:42 | 15.74434 | -90.37219 | 29928 ft | 433 kts | 185° |
| 2026-05-07 13:43 | 15.71417 | -90.37627 | 29362 ft | 429 kts | 185° |
| 2026-05-07 13:43 | 15.68473 | -90.38024 | 28839 ft | 425 kts | 184° |
| 2026-05-07 13:43 | 15.65557 | -90.38413 | 28321 ft | 421 kts | 184° |
| 2026-05-07 13:43 | 15.62663 | -90.38798 | 27863 ft | 417 kts | 184° |
| 2026-05-07 13:44 | 15.59799 | -90.39179 | 27361 ft | 413 kts | 184° |
| 2026-05-07 13:44 | 15.56956 | -90.39558 | 26876 ft | 410 kts | 184° |
| 2026-05-07 13:44 | 15.54136 | -90.39936 | 26408 ft | 407 kts | 184° |
| 2026-05-07 13:44 | 15.51339 | -90.40309 | 25937 ft | 404 kts | 184° |
| 2026-05-07 13:45 | 15.48559 | -90.40680 | 25498 ft | 402 kts | 184° |
| 2026-05-07 13:45 | 15.45786 | -90.41051 | 25028 ft | 400 kts | 184° |
| 2026-05-07 13:45 | 15.43031 | -90.41418 | 24555 ft | 399 kts | 184° |
| 2026-05-07 13:45 | 15.40283 | -90.41783 | 24075 ft | 397 kts | 184° |
| 2026-05-07 13:46 | 15.37544 | -90.42149 | 23569 ft | 397 kts | 184° |
| 2026-05-07 13:46 | 15.34813 | -90.42514 | 23061 ft | 395 kts | 184° |
| 2026-05-07 13:46 | 15.32095 | -90.42877 | 22572 ft | 393 kts | 184° |
| 2026-05-07 13:46 | 15.29395 | -90.43237 | 22083 ft | 391 kts | 184° |
| 2026-05-07 13:47 | 15.26705 | -90.43594 | 21594 ft | 388 kts | 184° |
| 2026-05-07 13:47 | 15.24035 | -90.43947 | 21104 ft | 387 kts | 184° |
| 2026-05-07 13:47 | 15.21369 | -90.44303 | 20619 ft | 385 kts | 184° |
| 2026-05-07 13:47 | 15.18724 | -90.44658 | 20142 ft | 383 kts | 184° |
| 2026-05-07 13:48 | 15.16084 | -90.45012 | 19641 ft | 382 kts | 184° |
| 2026-05-07 13:48 | 15.13449 | -90.45364 | 19053 ft | 383 kts | 184° |
| 2026-05-07 13:48 | 15.10846 | -90.45712 | 18530 ft | 370 kts | 185° |
| 2026-05-07 13:48 | 15.08346 | -90.46047 | 18032 ft | 356 kts | 184° |
| 2026-05-07 13:49 | 15.05935 | -90.46371 | 17619 ft | 343 kts | 184° |
| 2026-05-07 13:49 | 15.03582 | -90.46680 | 17191 ft | 340 kts | 184° |
| 2026-05-07 13:49 | 15.01230 | -90.46987 | 16763 ft | 340 kts | 184° |
| 2026-05-07 13:49 | 14.98882 | -90.47302 | 16343 ft | 340 kts | 185° |
| 2026-05-07 13:50 | 14.96544 | -90.47635 | 15928 ft | 339 kts | 185° |
| 2026-05-07 13:50 | 14.94205 | -90.47974 | 15508 ft | 339 kts | 185° |
| 2026-05-07 13:50 | 14.91872 | -90.48312 | 15123 ft | 338 kts | 185° |
| 2026-05-07 13:50 | 14.89544 | -90.48650 | 14698 ft | 338 kts | 185° |
| 2026-05-07 13:51 | 14.87214 | -90.48989 | 14278 ft | 336 kts | 185° |
| 2026-05-07 13:51 | 14.84901 | -90.49324 | 13848 ft | 336 kts | 185° |
| 2026-05-07 13:51 | 14.82587 | -90.49657 | 13407 ft | 336 kts | 185° |
| 2026-05-07 13:51 | 14.80274 | -90.49990 | 12981 ft | 334 kts | 186° |
| 2026-05-07 13:52 | 14.77978 | -90.50319 | 12554 ft | 331 kts | 185° |
| 2026-05-07 13:52 | 14.75700 | -90.50644 | 12148 ft | 330 kts | 186° |
| 2026-05-07 13:52 | 14.73431 | -90.50967 | 11720 ft | 328 kts | 186° |
| 2026-05-07 13:52 | 14.71145 | -90.51294 | 11286 ft | 323 kts | 186° |
| 2026-05-07 13:53 | 14.68990 | -90.51604 | 10878 ft | 311 kts | 186° |
| 2026-05-07 13:53 | 14.66855 | -90.51910 | 10442 ft | 300 kts | 186° |
| 2026-05-07 13:53 | 14.64824 | -90.52200 | 10145 ft | 286 kts | 186° |
| 2026-05-07 13:53 | 14.62932 | -90.52471 | 10051 ft | 265 kts | 186° |
| 2026-05-07 13:54 | 14.61138 | -90.52728 | 9861 ft | 258 kts | 186° |
| 2026-05-07 13:54 | 14.59350 | -90.52981 | 9447 ft | 260 kts | 186° |
| 2026-05-07 13:54 | 14.57551 | -90.53186 | 9088 ft | 259 kts | 178° |
| 2026-05-07 13:54 | 14.55756 | -90.52936 | 8738 ft | 256 kts | 165° |
| 2026-05-07 13:55 | 14.54055 | -90.52494 | 8400 ft | 255 kts | 165° |
| 2026-05-07 13:55 | 14.52336 | -90.52054 | 8058 ft | 254 kts | 165° |
| 2026-05-07 13:55 | 14.50604 | -90.51612 | 7705 ft | 253 kts | 165° |
| 2026-05-07 13:55 | 14.48924 | -90.51183 | 7377 ft | 252 kts | 166° |
| 2026-05-07 13:56 | 14.47262 | -90.50781 | 7231 ft | 235 kts | 172° |
| 2026-05-07 13:56 | 14.45717 | -90.50961 | 7175 ft | 217 kts | 204° |
| 2026-05-07 13:56 | 14.44611 | -90.51849 | 7088 ft | 193 kts | 232° |
| 2026-05-07 13:56 | 14.44111 | -90.53038 | 6994 ft | 173 kts | 259° |
| 2026-05-07 13:57 | 14.44155 | -90.54242 | 6929 ft | 166 kts | 285° |
| 2026-05-07 13:57 | 14.44668 | -90.55286 | 6880 ft | 162 kts | 309° |
| 2026-05-07 13:57 | 14.45537 | -90.56015 | 6790 ft | 161 kts | 334° |
| 2026-05-07 13:57 | 14.46610 | -90.56316 | 6720 ft | 160 kts | 357° |
| 2026-05-07 13:58 | 14.47718 | -90.56151 | 6647 ft | 159 kts | 19° |
| 2026-05-07 13:58 | 14.48763 | -90.55812 | 6578 ft | 160 kts | 17° |
| 2026-05-07 13:58 | 14.49481 | -90.55586 | 6522 ft | 160 kts | 18° |
| 2026-05-07 13:58 | 14.50547 | -90.55246 | 6280 ft | 160 kts | 17° |
| 2026-05-07 13:59 | 14.51603 | -90.54909 | 6072 ft | 158 kts | 18° |
| 2026-05-07 13:59 | 14.52649 | -90.54573 | 5859 ft | 157 kts | 18° |
| 2026-05-07 13:59 | 14.53694 | -90.54238 | 5635 ft | 157 kts | 18° |
| 2026-05-07 13:59 | 14.54740 | -90.53901 | 5410 ft | 157 kts | 18° |
| 2026-05-07 14:00 | 14.55785 | -90.53572 | 5194 ft | 156 kts | 17° |
| 2026-05-07 14:00 | 14.56824 | -90.53224 | 4980 ft | 158 kts | 19° |
| 2026-05-07 14:00 | 14.57843 | -90.52891 | 4874 ft | 141 kts | 15° |
| 2026-05-07 14:00 | 14.58624 | -90.52647 | 4892 ft | 93 kts | 17° |
| 2026-05-07 14:01 | 14.59042 | -90.52518 | 4908 ft | 36 kts | 18° |
| 2026-05-07 14:01 | 14.59196 | -90.52511 | 4911 ft | 7 kts | 296° |
| 2026-05-07 14:01 | 14.59168 | -90.52543 | 4911 ft | 6 kts | 212° |
| 2026-05-07 14:01 | 14.59103 | -90.52569 | 4901 ft | 14 kts | 195° |
| 2026-05-07 14:02 | 14.58989 | -90.52605 | 4901 ft | 19 kts | 200° |
| 2026-05-07 14:02 | 14.58851 | -90.52649 | 4897 ft | 22 kts | 197° |
| 2026-05-07 14:02 | 14.58787 | -90.52716 | 4896 ft | 13 kts | 288° |
| 2026-05-07 14:02 | 14.58844 | -90.52771 | 4900 ft | 10 kts | 334° |
| 2026-05-07 14:03 | 14.58898 | -90.52780 | 4893 ft | 6 kts | 5° |
| 2026-05-07 14:03 | 14.58947 | -90.52767 | 4895 ft | 9 kts | 16° |
| 2026-05-07 14:03 | 14.59022 | -90.52744 | 4903 ft | 13 kts | 16° |
| 2026-05-07 14:03 | 14.59121 | -90.52713 | 4905 ft | 17 kts | 17° |
| 2026-05-07 14:04 | 14.59208 | -90.52760 | 4913 ft | 17 kts | 290° |
| 2026-05-07 14:04 | 14.59242 | -90.52891 | 4910 ft | 21 kts | 264° |
| 2026-05-07 14:04 | 14.59159 | -90.52968 | 4907 ft | 10 kts | 198° |
| 2026-05-07 14:04 | 14.59109 | -90.52963 | 4903 ft | 4 kts | 114° |
| 2026-05-07 14:05 | 14.59103 | -90.52938 | 4904 ft | 4 kts | 107° |
| 2026-05-07 14:05 | 14.59099 | -90.52925 | 4904 ft | 0 kts | 108° |